createdAt,value
2019-01-21T00:00:09.937Z,14.95
2019-01-21T00:01:10.518Z,16.55
2019-01-21T00:01:45.262Z,14.95
2019-01-21T00:02:17.745Z,15.40
2019-01-21T00:02:50.209Z,16.80
2019-01-21T00:03:22.682Z,16.10
2019-01-21T00:03:55.703Z,17.50
2019-01-21T00:04:28.201Z,17.15
2019-01-21T00:05:00.690Z,18.95
2019-01-21T00:05:33.167Z,17.77
2019-01-21T00:06:05.627Z,16.75
2019-01-21T00:06:38.107Z,18.00
2019-01-21T00:07:10.578Z,16.80
2019-01-21T00:07:43.045Z,17.65
2019-01-21T00:08:15.512Z,17.10
2019-01-21T00:08:48.003Z,15.78
2019-01-21T00:09:20.770Z,16.10
2019-01-21T00:09:53.553Z,15.03
2019-01-21T00:10:26.403Z,16.52
2019-01-21T00:10:58.858Z,17.67
2019-01-21T00:11:31.768Z,17.55
2019-01-21T00:12:04.586Z,16.77
2019-01-21T00:12:37.051Z,16.07
2019-01-21T00:13:09.528Z,17.02
2019-01-21T00:13:42.009Z,15.35
2019-01-21T00:14:14.487Z,17.45
2019-01-21T00:14:47.347Z,16.70
2019-01-21T00:15:19.846Z,15.75
2019-01-21T00:15:52.396Z,15.65
2019-01-21T00:16:24.987Z,15.70
2019-01-21T00:16:57.830Z,15.10
2019-01-21T00:17:30.233Z,13.80
2019-01-21T00:18:02.715Z,14.87
2019-01-21T00:18:35.482Z,14.40
2019-01-21T00:19:07.937Z,14.90
2019-01-21T00:19:40.795Z,16.07
2019-01-21T00:20:13.253Z,15.30
2019-01-21T00:20:46.535Z,17.20
2019-01-21T00:21:19.294Z,15.15
2019-01-21T00:21:51.779Z,15.20
2019-01-21T00:22:24.260Z,15.85
2019-01-21T00:22:56.721Z,15.78
2019-01-21T00:23:29.487Z,13.35
2019-01-21T00:24:01.946Z,13.43
2019-01-21T00:24:34.702Z,13.95
2019-01-21T00:25:07.162Z,14.55
2019-01-21T00:25:39.961Z,13.80
2019-01-21T00:26:12.464Z,13.38
2019-01-21T00:26:44.935Z,14.28
2019-01-21T00:27:17.409Z,13.72
2019-01-21T00:27:50.210Z,13.58
2019-01-21T00:28:22.679Z,14.50
2019-01-21T00:28:55.151Z,14.00
2019-01-21T00:29:27.606Z,15.00
2019-01-21T00:30:00.219Z,14.68
2019-01-21T00:30:33.350Z,14.83
2019-01-21T00:31:05.823Z,15.45
2019-01-21T00:31:38.610Z,14.25
2019-01-21T00:32:11.395Z,12.88
2019-01-21T00:32:43.849Z,13.18
2019-01-21T00:33:16.330Z,14.63
2019-01-21T00:33:48.803Z,13.83
2019-01-21T00:34:21.271Z,13.80
2019-01-21T00:34:53.747Z,14.80
2019-01-21T00:35:26.206Z,15.35
2019-01-21T00:35:58.948Z,14.75
2019-01-21T00:36:31.419Z,14.95
2019-01-21T00:37:03.971Z,14.15
2019-01-21T00:37:36.419Z,15.80
2019-01-21T00:38:09.182Z,15.80
2019-01-21T00:38:41.940Z,14.83
2019-01-21T00:39:14.389Z,16.25
2019-01-21T00:39:46.863Z,16.23
2019-01-21T00:40:19.332Z,15.35
2019-01-21T00:40:52.080Z,16.35
2019-01-21T00:41:24.850Z,16.77
2019-01-21T00:41:57.315Z,16.57
2019-01-21T00:42:29.806Z,15.28
2019-01-21T00:43:02.269Z,15.43
2019-01-21T00:43:34.733Z,13.88
2019-01-21T00:44:07.198Z,15.15
2019-01-21T00:44:40.032Z,15.25
2019-01-21T00:45:13.333Z,17.27
2019-01-21T00:45:45.786Z,14.70
2019-01-21T00:46:18.947Z,14.43
2019-01-21T00:46:51.710Z,14.68
2019-01-21T00:47:29.847Z,13.93
2019-01-21T00:47:58.487Z,12.98
2019-01-21T00:48:31.244Z,13.03
2019-01-21T00:49:04.237Z,13.95
2019-01-21T00:49:36.711Z,13.50
2019-01-21T00:50:09.791Z,12.20
2019-01-21T00:50:42.268Z,11.90
2019-01-21T00:51:14.743Z,14.03
2019-01-21T00:51:47.194Z,13.40
2019-01-21T00:52:20.007Z,12.70
2019-01-21T00:52:52.467Z,14.13
2019-01-21T00:53:24.962Z,14.30
2019-01-21T00:53:57.461Z,14.13
2019-01-21T00:54:29.935Z,13.83
2019-01-21T00:55:02.404Z,14.33
2019-01-21T00:55:34.865Z,15.00
2019-01-21T00:56:07.330Z,14.38
2019-01-21T00:56:39.886Z,14.05
2019-01-21T00:57:12.346Z,15.60
2019-01-21T00:57:45.094Z,15.60
2019-01-21T00:58:18.208Z,15.50
2019-01-21T00:58:51.032Z,14.83
2019-01-21T00:59:23.499Z,16.30
2019-01-21T00:59:55.965Z,15.80
2019-01-21T01:00:28.425Z,15.95
2019-01-21T01:01:00.901Z,14.20
2019-01-21T01:01:33.379Z,13.88
2019-01-21T01:02:06.559Z,15.10
2019-01-21T01:02:39.023Z,13.70
2019-01-21T01:03:11.486Z,14.78
2019-01-21T01:03:43.951Z,13.20
2019-01-21T01:04:16.815Z,13.22
2019-01-21T01:04:49.274Z,12.95
2019-01-21T01:05:22.286Z,13.95
2019-01-21T01:05:54.790Z,14.05
2019-01-21T01:06:27.249Z,13.93
2019-01-21T01:07:00.039Z,16.85
2019-01-21T01:07:32.511Z,15.25
2019-01-21T01:08:05.267Z,14.58
2019-01-21T01:08:37.730Z,14.73
2019-01-21T01:09:10.197Z,13.90
2019-01-21T01:09:43.053Z,15.75
2019-01-21T01:10:15.531Z,14.58
2019-01-21T01:10:48.003Z,13.90
2019-01-21T01:11:20.926Z,14.80
2019-01-21T01:11:53.396Z,13.80
2019-01-21T01:12:25.868Z,14.83
2019-01-21T01:12:58.337Z,15.03
2019-01-21T01:13:30.811Z,15.18
2019-01-21T01:14:03.307Z,15.75
2019-01-21T01:14:35.780Z,17.52
2019-01-21T01:15:09.672Z,18.23
2019-01-21T01:15:42.130Z,18.42
2019-01-21T01:16:14.609Z,17.80
2019-01-21T01:16:47.426Z,16.90
2019-01-21T01:17:19.886Z,18.00
2019-01-21T01:17:52.359Z,16.95
2019-01-21T01:18:25.159Z,18.98
2019-01-21T01:18:57.623Z,19.23
2019-01-21T01:19:30.423Z,18.90
2019-01-21T01:20:04.852Z,21.02
2019-01-21T01:20:37.354Z,20.92
2019-01-21T01:21:09.831Z,20.92
2019-01-21T01:21:42.296Z,18.95
2019-01-21T01:22:14.787Z,20.65
2019-01-21T01:22:47.241Z,20.52
2019-01-21T01:23:20.003Z,21.60
2019-01-21T01:23:52.466Z,23.25
2019-01-21T01:24:25.201Z,24.95
2019-01-21T01:24:57.673Z,24.72
2019-01-21T01:25:30.467Z,22.15
2019-01-21T01:26:02.979Z,20.70
2019-01-21T01:26:36.014Z,20.10
2019-01-21T01:27:08.853Z,18.52
2019-01-21T01:27:41.326Z,19.40
2019-01-21T01:28:13.792Z,18.95
2019-01-21T01:28:47.085Z,22.50
2019-01-21T01:29:19.558Z,24.80
2019-01-21T01:29:52.427Z,23.40
2019-01-21T01:30:25.274Z,22.42
2019-01-21T01:30:57.751Z,20.40
2019-01-21T01:31:30.264Z,17.65
2019-01-21T01:32:02.721Z,15.40
2019-01-21T01:32:35.528Z,17.50
2019-01-21T01:33:07.999Z,16.20
2019-01-21T01:33:40.747Z,14.63
2019-01-21T01:34:13.214Z,17.12
2019-01-21T01:34:45.692Z,14.15
2019-01-21T01:35:18.270Z,15.40
2019-01-21T01:35:51.026Z,16.93
2019-01-21T01:36:23.500Z,14.78
2019-01-21T01:36:55.995Z,15.00
2019-01-21T01:37:28.469Z,15.30
2019-01-21T01:38:00.935Z,15.15
2019-01-21T01:38:34.018Z,18.95
2019-01-21T01:39:07.055Z,18.75
2019-01-21T01:39:39.527Z,19.02
2019-01-21T01:40:14.195Z,20.72
2019-01-21T01:40:46.665Z,17.20
2019-01-21T01:41:19.540Z,17.00
2019-01-21T01:41:52.407Z,17.92
2019-01-21T01:42:24.915Z,15.25
2019-01-21T01:42:57.391Z,14.33
2019-01-21T01:43:29.860Z,14.40
2019-01-21T01:44:02.456Z,15.13
2019-01-21T01:44:35.283Z,14.55
2019-01-21T01:45:09.098Z,15.10
2019-01-21T01:45:42.065Z,14.95
2019-01-21T01:46:15.255Z,15.25
2019-01-21T01:46:47.706Z,17.02
2019-01-21T01:47:20.458Z,15.90
2019-01-21T01:47:59.797Z,14.35
2019-01-21T01:48:32.265Z,15.25
2019-01-21T01:49:04.830Z,14.65
2019-01-21T01:49:37.614Z,15.65
2019-01-21T01:50:10.465Z,14.07
2019-01-21T01:50:43.731Z,11.60
2019-01-21T01:51:16.191Z,11.35
2019-01-21T01:51:49.022Z,13.50
2019-01-21T01:52:21.821Z,14.13
2019-01-21T01:52:55.031Z,13.03
2019-01-21T01:53:27.625Z,14.45
2019-01-21T01:54:00.413Z,13.48
2019-01-21T01:54:32.895Z,13.50
2019-01-21T01:55:06.390Z,13.22
2019-01-21T01:55:39.247Z,12.35
2019-01-21T01:56:12.033Z,12.37
2019-01-21T01:56:44.502Z,12.68
2019-01-21T01:57:17.483Z,11.50
2019-01-21T01:57:51.971Z,12.18
2019-01-21T01:58:24.653Z,12.50
2019-01-21T01:58:57.151Z,12.90
2019-01-21T01:59:30.010Z,14.55
2019-01-21T02:00:04.449Z,13.25
2019-01-21T02:00:37.207Z,13.48
2019-01-21T02:01:09.998Z,11.60
2019-01-21T02:01:42.475Z,12.18
2019-01-21T02:02:14.943Z,12.28
2019-01-21T02:02:48.102Z,12.80
2019-01-21T02:03:20.579Z,13.98
2019-01-21T02:03:53.048Z,13.48
2019-01-21T02:04:25.902Z,12.85
2019-01-21T02:04:58.644Z,12.78
2019-01-21T02:05:31.109Z,11.53
2019-01-21T02:06:03.577Z,12.37
2019-01-21T02:06:36.065Z,11.50
2019-01-21T02:07:08.556Z,12.18
2019-01-21T02:07:41.028Z,12.70
2019-01-21T02:08:13.843Z,11.85
2019-01-21T02:08:46.301Z,11.83
2019-01-21T02:09:18.769Z,12.40
2019-01-21T02:09:51.271Z,12.05
2019-01-21T02:10:23.726Z,10.90
2019-01-21T02:10:56.556Z,11.28
2019-01-21T02:11:29.451Z,11.80
2019-01-21T02:12:02.228Z,12.28
2019-01-21T02:12:35.157Z,11.95
2019-01-21T02:13:07.921Z,12.28
2019-01-21T02:13:40.390Z,11.90
2019-01-21T02:14:13.271Z,12.68
2019-01-21T02:14:45.748Z,12.03
2019-01-21T02:15:18.898Z,11.93
2019-01-21T02:15:51.374Z,12.82
2019-01-21T02:16:23.834Z,13.70
2019-01-21T02:16:56.311Z,13.53
2019-01-21T02:17:28.761Z,12.75
2019-01-21T02:18:01.235Z,11.63
2019-01-21T02:18:33.707Z,12.45
2019-01-21T02:19:06.175Z,13.30
2019-01-21T02:19:41.309Z,13.28
2019-01-21T02:20:13.888Z,13.20
2019-01-21T02:20:48.384Z,11.68
2019-01-21T02:21:22.445Z,11.88
2019-01-21T02:21:56.718Z,12.35
2019-01-21T02:22:30.486Z,11.45
2019-01-21T02:23:04.332Z,12.82
2019-01-21T02:23:37.735Z,12.33
2019-01-21T02:24:12.969Z,12.00
2019-01-21T02:24:48.155Z,10.35
2019-01-21T02:25:24.937Z,12.25
2019-01-21T02:26:00.904Z,11.35
2019-01-21T02:26:39.875Z,10.63
2019-01-21T02:27:23.092Z,12.05
2019-01-21T02:28:34.882Z,12.37
2019-01-21T02:29:29.754Z,11.22
2019-01-21T02:30:20.971Z,11.28
2019-01-21T02:31:25.667Z,11.88
2019-01-21T02:32:41.032Z,11.83
2019-01-21T02:33:54.864Z,11.20
2019-01-21T02:34:55.798Z,11.95
2019-01-21T02:35:51.310Z,11.38
2019-01-21T02:37:02.794Z,12.47
2019-01-21T02:38:26.282Z,11.35
2019-01-21T02:39:42.135Z,10.63
2019-01-21T02:40:49.173Z,11.25
2019-01-21T02:41:37.211Z,10.32
2019-01-21T02:42:43.616Z,11.03
2019-01-21T02:43:41.694Z,11.50
2019-01-21T02:45:07.255Z,11.63
2019-01-21T02:45:57.129Z,12.13
2019-01-21T02:47:17.855Z,12.25
2019-01-21T02:48:02.874Z,12.25
2019-01-21T02:48:51.402Z,11.95
2019-01-21T02:49:48.060Z,11.05
2019-01-21T02:50:57.756Z,11.03
2019-01-21T02:52:21.161Z,10.20
2019-01-21T02:53:30.248Z,10.82
2019-01-21T02:54:37.783Z,12.33
2019-01-21T02:55:52.327Z,11.10
2019-01-21T02:56:48.244Z,11.65
2019-01-21T02:58:06.481Z,11.53
2019-01-21T02:58:57.580Z,10.93
2019-01-21T02:59:57.075Z,11.53
2019-01-21T03:01:07.424Z,11.22
2019-01-21T03:02:17.275Z,11.22
2019-01-21T03:03:26.833Z,12.25
2019-01-21T03:04:28.884Z,11.12
2019-01-21T03:05:13.504Z,10.93
2019-01-21T03:06:27.741Z,11.53
2019-01-21T03:07:29.238Z,11.60
2019-01-21T03:08:46.133Z,11.53
2019-01-21T03:09:49.097Z,10.75
2019-01-21T03:10:33.609Z,11.15
2019-01-21T03:11:47.545Z,11.75
2019-01-21T03:13:07.570Z,10.50
2019-01-21T03:13:53.594Z,11.60
2019-01-21T03:15:02.748Z,11.83
2019-01-21T03:16:13.982Z,10.40
2019-01-21T03:17:30.480Z,10.58
2019-01-21T03:18:54.054Z,10.15
2019-01-21T03:19:48.151Z,9.80
2019-01-21T03:20:48.864Z,8.93
2019-01-21T03:22:27.736Z,11.00
2019-01-21T03:24:03.874Z,8.70
2019-01-21T03:25:00.095Z,9.88
2019-01-21T03:26:16.657Z,9.80
2019-01-21T03:27:03.931Z,9.45
2019-01-21T03:28:24.386Z,9.15
2019-01-21T03:29:16.286Z,9.23
2019-01-21T03:30:37.998Z,9.70
2019-01-21T03:31:59.277Z,10.40
2019-01-21T03:33:14.161Z,10.00
2019-01-21T03:34:30.517Z,10.63
2019-01-21T03:35:37.343Z,9.28
2019-01-21T03:36:42.148Z,10.13
2019-01-21T03:37:45.644Z,10.48
2019-01-21T03:38:58.521Z,9.90
2019-01-21T03:40:05.732Z,9.53
2019-01-21T03:41:02.575Z,10.00
2019-01-21T03:41:47.417Z,9.90
2019-01-21T03:42:38.832Z,9.40
2019-01-21T03:43:52.822Z,10.08
2019-01-21T03:45:08.546Z,10.65
2019-01-21T03:46:10.883Z,9.73
2019-01-21T03:47:21.850Z,8.85
2019-01-21T03:48:16.513Z,10.08
2019-01-21T03:49:01.126Z,10.95
2019-01-21T03:49:47.465Z,9.15
2019-01-21T03:50:48.388Z,10.20
2019-01-21T03:52:13.435Z,9.60
2019-01-21T03:53:02.353Z,10.28
2019-01-21T03:53:49.894Z,10.10
2019-01-21T03:54:31.037Z,10.25
2019-01-21T03:55:13.959Z,10.45
2019-01-21T03:55:48.144Z,10.32
2019-01-21T03:57:02.886Z,9.18
2019-01-21T03:58:29.444Z,10.98
2019-01-21T03:59:34.718Z,9.88
2019-01-21T04:01:01.089Z,8.90
2019-01-21T04:02:24.831Z,9.15
2019-01-21T04:03:31.272Z,8.73
2019-01-21T04:04:31.685Z,9.58
2019-01-21T04:05:19.766Z,9.75
2019-01-21T04:06:15.524Z,10.32
2019-01-21T04:07:25.241Z,9.98
2019-01-21T04:08:12.458Z,9.70
2019-01-21T04:08:56.096Z,10.08
2019-01-21T04:10:12.119Z,10.28
2019-01-21T04:11:01.047Z,10.98
2019-01-21T04:11:44.976Z,11.05
2019-01-21T04:13:06.273Z,10.40
2019-01-21T04:14:32.780Z,9.10
2019-01-21T04:15:52.544Z,8.95
2019-01-21T04:17:07.077Z,8.90
2019-01-21T04:18:07.574Z,9.18
2019-01-21T04:19:28.962Z,9.43
2019-01-21T04:20:34.672Z,10.32
2019-01-21T04:21:45.918Z,10.23
2019-01-21T04:22:43.699Z,9.78
2019-01-21T04:24:20.040Z,9.98
2019-01-21T04:25:18.202Z,9.73
2019-01-21T04:26:16.477Z,10.15
2019-01-21T04:27:25.300Z,8.98
2019-01-21T04:28:15.227Z,9.60
2019-01-21T04:29:57.316Z,10.78
2019-01-21T04:31:16.659Z,9.28
2019-01-21T04:32:33.530Z,9.95
2019-01-21T04:33:41.757Z,10.55
2019-01-21T04:34:39.436Z,9.63
2019-01-21T04:35:29.901Z,10.13
2019-01-21T04:36:42.357Z,10.10
2019-01-21T04:37:55.646Z,11.10
2019-01-21T04:38:56.695Z,10.55
2019-01-21T04:39:46.671Z,9.58
2019-01-21T04:40:46.562Z,9.50
2019-01-21T04:41:57.449Z,9.95
2019-01-21T04:43:14.601Z,10.50
2019-01-21T04:44:38.396Z,9.85
2019-01-21T04:45:27.265Z,10.58
2019-01-21T04:46:53.939Z,9.35
2019-01-21T04:47:52.440Z,9.40
2019-01-21T04:48:44.083Z,9.78
2019-01-21T04:50:10.598Z,8.50
2019-01-21T04:51:20.766Z,9.28
2019-01-21T04:52:30.734Z,9.85
2019-01-21T04:53:53.016Z,9.50
2019-01-21T04:54:55.641Z,8.65
2019-01-21T04:56:10.674Z,10.35
2019-01-21T04:57:34.158Z,9.38
2019-01-21T04:58:45.026Z,10.43
2019-01-21T05:00:04.751Z,9.00
2019-01-21T05:01:16.251Z,9.23
2019-01-21T05:02:19.387Z,9.80
2019-01-21T05:03:36.095Z,10.23
2019-01-21T05:04:37.877Z,10.08
2019-01-21T05:05:35.644Z,10.10
2019-01-21T05:06:27.409Z,11.65
2019-01-21T05:07:15.516Z,11.53
2019-01-21T05:08:20.396Z,9.50
2019-01-21T05:09:31.180Z,10.75
2019-01-21T05:10:37.865Z,11.05
2019-01-21T05:11:40.918Z,12.18
2019-01-21T05:12:51.879Z,14.68
2019-01-21T05:13:54.663Z,15.00
2019-01-21T05:15:27.388Z,15.15
2019-01-21T05:16:52.968Z,16.05
2019-01-21T05:18:10.190Z,17.00
2019-01-21T05:19:34.316Z,13.25
2019-01-21T05:20:49.466Z,10.60
2019-01-21T05:21:35.446Z,12.50
2019-01-21T05:22:24.984Z,12.05
2019-01-21T05:23:20.033Z,10.40
2019-01-21T05:24:25.076Z,12.50
2019-01-21T05:25:17.990Z,11.53
2019-01-21T05:26:04.260Z,12.58
2019-01-21T05:26:53.659Z,12.43
2019-01-21T05:28:11.464Z,12.37
2019-01-21T05:29:24.748Z,11.97
2019-01-21T05:30:29.778Z,12.20
2019-01-21T05:31:53.323Z,12.47
2019-01-21T05:32:50.939Z,12.80
2019-01-21T05:33:49.446Z,12.13
2019-01-21T05:35:06.997Z,11.70
2019-01-21T05:36:25.916Z,11.70
2019-01-21T05:37:16.518Z,11.03
2019-01-21T05:37:58.519Z,11.55
2019-01-21T05:39:13.792Z,11.93
2019-01-21T05:40:16.035Z,12.55
2019-01-21T05:41:03.046Z,13.60
2019-01-21T05:41:53.099Z,14.23
2019-01-21T05:42:45.139Z,13.28
2019-01-21T05:44:02.579Z,12.85
2019-01-21T05:44:57.280Z,10.70
2019-01-21T05:45:55.147Z,10.25
2019-01-21T05:47:08.272Z,11.53
2019-01-21T05:48:17.167Z,9.50
2019-01-21T05:49:41.075Z,11.45
2019-01-21T05:50:50.961Z,12.60
2019-01-21T05:52:14.285Z,11.83
2019-01-21T05:53:31.106Z,10.23
2019-01-21T05:54:59.300Z,11.45
2019-01-21T05:56:15.482Z,10.80
2019-01-21T05:57:18.283Z,11.93
2019-01-21T05:58:35.344Z,11.12
2019-01-21T05:59:43.494Z,12.00
2019-01-21T06:00:44.462Z,11.38
2019-01-21T06:02:17.219Z,11.55
2019-01-21T06:03:24.679Z,11.30
2019-01-21T06:04:13.933Z,12.23
2019-01-21T06:05:23.863Z,12.45
2019-01-21T06:06:41.781Z,12.58
2019-01-21T06:08:01.132Z,12.80
2019-01-21T06:09:27.529Z,12.23
2019-01-21T06:10:14.387Z,12.53
2019-01-21T06:10:56.272Z,13.65
2019-01-21T06:11:58.090Z,14.23
2019-01-21T06:13:06.870Z,14.40
2019-01-21T06:14:21.388Z,13.70
2019-01-21T06:15:43.220Z,15.10
2019-01-21T06:16:33.783Z,14.73
2019-01-21T06:17:53.341Z,15.23
2019-01-21T06:19:35.312Z,14.18
2019-01-21T06:20:39.815Z,14.20
2019-01-21T06:21:35.026Z,13.95
2019-01-21T06:22:55.418Z,14.03
2019-01-21T06:24:11.314Z,14.50
2019-01-21T06:25:28.724Z,14.78
2019-01-21T06:27:07.235Z,13.25
2019-01-21T06:28:13.078Z,14.98
2019-01-21T06:29:26.166Z,14.75
2019-01-21T06:30:24.038Z,14.05
2019-01-21T06:31:33.388Z,15.10
2019-01-21T06:32:50.330Z,14.80
2019-01-21T06:34:16.631Z,13.58
2019-01-21T06:35:35.426Z,14.63
2019-01-21T06:36:27.950Z,13.28
2019-01-21T06:37:41.167Z,15.35
2019-01-21T06:38:51.644Z,14.40
2019-01-21T06:40:00.426Z,13.93
2019-01-21T06:41:15.187Z,14.33
2019-01-21T06:42:40.819Z,14.30
2019-01-21T06:43:22.906Z,13.93
2019-01-21T06:44:24.750Z,15.45
2019-01-21T06:45:39.708Z,14.50
2019-01-21T06:47:01.279Z,12.93
2019-01-21T06:48:10.539Z,14.20
2019-01-21T06:49:19.110Z,13.68
2019-01-21T06:50:41.788Z,14.85
2019-01-21T06:51:32.121Z,15.40
2019-01-21T06:52:42.334Z,13.40
2019-01-21T06:53:40.049Z,15.38
2019-01-21T06:54:52.927Z,15.00
2019-01-21T06:56:29.583Z,15.70
2019-01-21T06:57:39.991Z,15.85
2019-01-21T06:58:30.242Z,15.58
2019-01-21T06:59:50.365Z,14.78
2019-01-21T07:00:44.123Z,13.85
2019-01-21T07:01:48.064Z,15.35
2019-01-21T07:03:01.492Z,16.25
2019-01-21T07:03:51.476Z,16.67
2019-01-21T07:04:55.139Z,16.32
2019-01-21T07:05:57.411Z,15.58
2019-01-21T07:07:23.917Z,17.62
2019-01-21T07:08:27.432Z,16.77
2019-01-21T07:09:39.694Z,16.00
2019-01-21T07:10:48.027Z,16.15
2019-01-21T07:11:38.507Z,16.70
2019-01-21T07:12:36.291Z,16.70
2019-01-21T07:13:17.652Z,15.05
2019-01-21T07:14:07.424Z,16.40
2019-01-21T07:15:27.375Z,16.50
2019-01-21T07:16:43.969Z,14.73
2019-01-21T07:17:30.588Z,16.27
2019-01-21T07:18:26.890Z,16.15
2019-01-21T07:19:46.260Z,16.42
2019-01-21T07:20:48.732Z,16.00
2019-01-21T07:21:47.868Z,16.60
2019-01-21T07:23:03.285Z,16.55
2019-01-21T07:24:27.947Z,15.48
2019-01-21T07:25:41.157Z,16.12
2019-01-21T07:26:40.338Z,15.45
2019-01-21T07:27:46.408Z,15.18
2019-01-21T07:28:58.412Z,15.10
2019-01-21T07:30:06.362Z,17.10
2019-01-21T07:31:05.099Z,17.23
2019-01-21T07:32:22.388Z,17.37
2019-01-21T07:33:32.659Z,16.75
2019-01-21T07:34:29.757Z,16.23
2019-01-21T07:35:39.823Z,17.65
2019-01-21T07:36:39.695Z,17.52
2019-01-21T07:37:28.871Z,16.93
2019-01-21T07:38:38.383Z,15.78
2019-01-21T07:39:46.806Z,17.52
2019-01-21T07:41:05.893Z,16.95
2019-01-21T07:42:08.125Z,16.35
2019-01-21T07:43:16.188Z,16.40
2019-01-21T07:44:39.958Z,16.62
2019-01-21T07:45:41.308Z,15.48
2019-01-21T07:47:08.206Z,17.17
2019-01-21T07:48:10.810Z,16.07
2019-01-21T07:49:21.843Z,16.90
2019-01-21T07:50:51.038Z,17.27
2019-01-21T07:52:21.457Z,18.17
2019-01-21T07:53:31.327Z,17.12
2019-01-21T07:54:27.927Z,16.48
2019-01-21T07:55:28.348Z,18.05
2019-01-21T07:57:09.874Z,18.92
2019-01-21T07:58:30.614Z,17.50
2019-01-21T07:59:47.778Z,21.80
2019-01-21T08:00:39.715Z,20.65
2019-01-21T08:01:26.807Z,21.05
2019-01-21T08:02:44.467Z,20.25
2019-01-21T08:03:49.382Z,18.98
2019-01-21T08:05:01.167Z,17.73
2019-01-21T08:06:26.680Z,17.02
2019-01-21T08:07:25.164Z,17.90
2019-01-21T08:08:39.494Z,17.85
2019-01-21T08:09:27.024Z,19.02
2019-01-21T08:10:49.686Z,17.10
2019-01-21T08:12:10.333Z,18.00
2019-01-21T08:13:08.201Z,17.98
2019-01-21T08:14:04.451Z,16.27
2019-01-21T08:15:21.106Z,18.27
2019-01-21T08:16:32.553Z,18.23
2019-01-21T08:17:26.652Z,18.52
2019-01-21T08:18:41.144Z,17.60
2019-01-21T08:19:40.802Z,16.93
2019-01-21T08:20:51.299Z,18.02
2019-01-21T08:21:58.380Z,18.67
2019-01-21T08:23:20.817Z,18.45
2019-01-21T08:24:35.813Z,17.52
2019-01-21T08:25:51.422Z,17.25
2019-01-21T08:27:17.927Z,17.40
2019-01-21T08:28:26.333Z,17.62
2019-01-21T08:30:08.306Z,19.02
2019-01-21T08:31:13.465Z,17.20
2019-01-21T08:32:26.151Z,18.12
2019-01-21T08:33:52.433Z,18.95
2019-01-21T08:35:06.793Z,18.90
2019-01-21T08:36:24.262Z,18.23
2019-01-21T08:37:52.756Z,17.82
2019-01-21T08:38:57.311Z,17.57
2019-01-21T08:40:07.873Z,17.35
2019-01-21T08:41:03.974Z,16.85
2019-01-21T08:42:01.767Z,16.55
2019-01-21T08:43:16.470Z,17.98
2019-01-21T08:44:19.321Z,17.05
2019-01-21T08:45:46.270Z,16.30
2019-01-21T08:46:58.221Z,17.45
2019-01-21T08:48:04.787Z,14.87
2019-01-21T08:49:30.810Z,17.37
2019-01-21T08:50:24.106Z,15.80
2019-01-21T08:51:32.187Z,14.95
2019-01-21T08:52:51.835Z,15.43
2019-01-21T08:53:59.336Z,16.25
2019-01-21T08:55:15.966Z,15.83
2019-01-21T08:56:35.856Z,14.45
2019-01-21T08:57:44.903Z,15.32
2019-01-21T08:58:58.113Z,16.05
2019-01-21T08:59:40.839Z,16.07
2019-01-21T09:00:39.940Z,17.07
2019-01-21T09:01:48.796Z,18.02
2019-01-21T09:02:51.190Z,16.25
2019-01-21T09:03:59.850Z,16.02
2019-01-21T09:05:19.108Z,15.40
2019-01-21T09:06:33.909Z,16.75
2019-01-21T09:07:43.983Z,16.52
2019-01-21T09:09:05.998Z,16.48
2019-01-21T09:10:16.067Z,16.32
2019-01-21T09:11:41.843Z,15.98
2019-01-21T09:13:11.207Z,16.12
2019-01-21T09:14:04.199Z,17.82
2019-01-21T09:15:24.228Z,16.75
2019-01-21T09:16:48.926Z,16.85
2019-01-21T09:17:39.964Z,15.00
2019-01-21T09:18:41.730Z,18.30
2019-01-21T09:19:37.074Z,15.58
2019-01-21T09:20:33.212Z,16.32
2019-01-21T09:21:56.637Z,20.85
2019-01-21T09:22:50.432Z,19.95
2019-01-21T09:23:55.202Z,16.20
2019-01-21T09:24:55.960Z,19.00
2019-01-21T09:26:00.411Z,18.17
2019-01-21T09:27:10.021Z,16.00
2019-01-21T09:28:29.351Z,17.95
2019-01-21T09:29:19.218Z,17.65
2019-01-21T09:30:55.052Z,19.77
2019-01-21T09:31:45.681Z,17.55
2019-01-21T09:32:59.429Z,19.48
2019-01-21T09:34:14.344Z,16.45
2019-01-21T09:35:23.447Z,16.87
2019-01-21T09:36:35.693Z,18.10
2019-01-21T09:37:39.246Z,19.40
2019-01-21T09:38:32.035Z,18.80
2019-01-21T09:39:44.578Z,16.55
2019-01-21T09:41:00.200Z,17.45
2019-01-21T09:41:54.652Z,16.73
2019-01-21T09:43:00.683Z,19.23
2019-01-21T09:43:56.209Z,18.73
2019-01-21T09:45:17.100Z,17.98
2019-01-21T09:46:36.169Z,18.55
2019-01-21T09:47:07.971Z,18.42
2019-01-21T09:47:39.427Z,18.60
2019-01-21T09:48:10.871Z,19.67
2019-01-21T09:48:42.709Z,20.43
2019-01-21T09:49:14.185Z,19.82
2019-01-21T09:49:46.763Z,19.60
2019-01-21T09:50:19.632Z,19.50
2019-01-21T09:50:52.589Z,19.92
2019-01-21T09:51:26.479Z,19.90
2019-01-21T09:52:05.178Z,20.00
2019-01-21T09:52:38.098Z,21.17
2019-01-21T09:53:10.782Z,22.13
2019-01-21T09:53:47.566Z,22.87
2019-01-21T09:54:20.437Z,26.85
2019-01-21T09:54:53.019Z,19.90
2019-01-21T09:55:25.829Z,20.05
2019-01-21T09:55:58.603Z,16.70
2019-01-21T09:56:31.071Z,18.82
2019-01-21T09:57:06.029Z,25.55
2019-01-21T09:57:39.082Z,19.05
2019-01-21T09:58:11.545Z,19.67
2019-01-21T09:58:44.742Z,19.73
2019-01-21T09:59:19.307Z,20.02
2019-01-21T09:59:54.058Z,19.40
2019-01-21T10:00:26.528Z,19.77
2019-01-21T10:00:59.307Z,19.55
2019-01-21T10:01:32.174Z,19.05
2019-01-21T10:02:06.843Z,19.80
2019-01-21T10:02:44.801Z,18.10
2019-01-21T10:03:18.190Z,19.67
2019-01-21T10:03:50.755Z,17.55
2019-01-21T10:04:32.114Z,17.65
2019-01-21T10:05:09.662Z,17.85
2019-01-21T10:05:44.057Z,20.85
2019-01-21T10:06:21.072Z,30.52
2019-01-21T10:07:41.669Z,24.50
2019-01-21T10:08:56.591Z,20.85
2019-01-21T10:09:56.855Z,18.15
2019-01-21T10:11:14.650Z,16.55
2019-01-21T10:12:09.674Z,16.17
2019-01-21T10:13:13.114Z,17.30
2019-01-21T10:14:42.370Z,19.57
2019-01-21T10:15:33.758Z,17.12
2019-01-21T10:16:29.040Z,17.42
2019-01-21T10:17:42.294Z,16.25
2019-01-21T10:18:58.886Z,17.45
2019-01-21T10:19:55.266Z,16.60
2019-01-21T10:21:08.267Z,17.87
2019-01-21T10:22:04.650Z,16.37
2019-01-21T10:23:09.297Z,20.85
2019-01-21T10:23:52.749Z,18.57
2019-01-21T10:25:07.225Z,17.82
2019-01-21T10:25:50.830Z,18.25
2019-01-21T10:26:55.430Z,17.37
2019-01-21T10:27:47.851Z,18.65
2019-01-21T10:28:59.953Z,19.82
2019-01-21T10:29:56.746Z,21.07
2019-01-21T10:30:41.381Z,18.35
2019-01-21T10:31:43.195Z,18.90
2019-01-21T10:32:47.715Z,18.77
2019-01-21T10:33:48.307Z,17.92
2019-01-21T10:35:16.714Z,19.95
2019-01-21T10:36:36.846Z,19.62
2019-01-21T10:37:39.398Z,16.77
2019-01-21T10:38:55.897Z,16.67
2019-01-21T10:40:02.059Z,17.55
2019-01-21T10:40:57.878Z,19.70
2019-01-21T10:42:15.217Z,18.82
2019-01-21T10:43:16.382Z,19.32
2019-01-21T10:44:25.294Z,18.00
2019-01-21T10:45:44.682Z,18.62
2019-01-21T10:46:50.226Z,16.30
2019-01-21T10:47:50.646Z,17.17
2019-01-21T10:49:09.498Z,16.42
2019-01-21T10:50:25.455Z,14.35
2019-01-21T10:51:50.675Z,15.80
2019-01-21T10:53:10.838Z,16.65
2019-01-21T10:54:17.090Z,16.27
2019-01-21T10:55:06.700Z,16.93
2019-01-21T10:56:19.304Z,17.27
2019-01-21T10:56:58.945Z,16.25
2019-01-21T10:57:48.363Z,18.52
2019-01-21T10:58:28.894Z,21.70
2019-01-21T10:59:27.017Z,18.35
2019-01-21T11:00:43.453Z,19.98
2019-01-21T11:01:53.538Z,23.27
2019-01-21T11:03:15.430Z,24.77
2019-01-21T11:04:05.722Z,23.15
2019-01-21T11:05:09.966Z,24.95
2019-01-21T11:06:07.950Z,22.90
2019-01-21T11:06:59.713Z,18.02
2019-01-21T11:08:32.426Z,17.57
2019-01-21T11:09:47.745Z,17.87
2019-01-21T11:10:49.037Z,16.50
2019-01-21T11:12:18.318Z,16.77
2019-01-21T11:13:09.958Z,28.05
2019-01-21T11:14:21.825Z,25.40
2019-01-21T11:15:20.354Z,35.75
2019-01-21T11:16:13.156Z,27.70
2019-01-21T11:17:08.973Z,19.05
2019-01-21T11:18:06.233Z,17.55
2019-01-21T11:19:07.129Z,18.37
2019-01-21T11:20:13.383Z,16.30
2019-01-21T11:21:27.590Z,17.10
2019-01-21T11:22:15.343Z,34.78
2019-01-21T11:23:22.138Z,22.40
2019-01-21T11:24:28.695Z,16.10
2019-01-21T11:25:38.417Z,17.20
2019-01-21T11:26:51.466Z,18.07
2019-01-21T11:28:06.465Z,17.57
2019-01-21T11:29:30.378Z,15.85
2019-01-21T11:30:32.066Z,20.10
2019-01-21T11:31:58.586Z,16.97
2019-01-21T11:33:14.918Z,14.73
2019-01-21T11:34:32.831Z,35.95
2019-01-21T11:35:47.690Z,21.93
2019-01-21T11:36:49.025Z,19.98
2019-01-21T11:37:59.060Z,16.90